sensor_id;sensor_type;location;lat;lon;timestamp;P1;durP1;ratioP1;P2;durP2;ratioP2
59938;SDS011;45801;51.810;19.444;2023-03-31T00:01:40;10.70;;;5.20;;
59938;SDS011;45801;51.810;19.444;2023-03-31T00:04:07;9.50;;;4.50;;
59938;SDS011;45801;51.810;19.444;2023-03-31T00:06:39;10.10;;;5.50;;
59938;SDS011;45801;51.810;19.444;2023-03-31T00:09:11;9.20;;;4.70;;
59938;SDS011;45801;51.810;19.444;2023-03-31T00:11:41;9.90;;;5.10;;
59938;SDS011;45801;51.810;19.444;2023-03-31T00:14:07;9.60;;;5.60;;
59938;SDS011;45801;51.810;19.444;2023-03-31T00:16:35;9.90;;;5.10;;
59938;SDS011;45801;51.810;19.444;2023-03-31T00:19:03;10.90;;;5.90;;
59938;SDS011;45801;51.810;19.444;2023-03-31T00:21:31;10.30;;;6.00;;
59938;SDS011;45801;51.810;19.444;2023-03-31T00:24:03;11.70;;;6.90;;
59938;SDS011;45801;51.810;19.444;2023-03-31T00:26:32;11.80;;;7.70;;
59938;SDS011;45801;51.810;19.444;2023-03-31T00:29:01;11.10;;;8.10;;
59938;SDS011;45801;51.810;19.444;2023-03-31T00:31:28;11.80;;;7.70;;
59938;SDS011;45801;51.810;19.444;2023-03-31T00:33:55;12.90;;;8.00;;
59938;SDS011;45801;51.810;19.444;2023-03-31T00:36:22;10.90;;;6.20;;
59938;SDS011;45801;51.810;19.444;2023-03-31T00:38:54;13.20;;;7.60;;
59938;SDS011;45801;51.810;19.444;2023-03-31T00:41:25;11.30;;;6.70;;
59938;SDS011;45801;51.810;19.444;2023-03-31T00:44:07;13.90;;;9.50;;
59938;SDS011;45801;51.810;19.444;2023-03-31T00:50:04;12.80;;;9.70;;
59938;SDS011;45801;51.810;19.444;2023-03-31T00:52:16;13.00;;;9.10;;
59938;SDS011;45801;51.810;19.444;2023-03-31T00:54:55;14.30;;;9.90;;
59938;SDS011;45801;51.810;19.444;2023-03-31T00:57:26;12.40;;;9.10;;
59938;SDS011;45801;51.810;19.444;2023-03-31T00:59:58;13.50;;;9.60;;
59938;SDS011;45801;51.810;19.444;2023-03-31T01:02:37;14.20;;;10.00;;
59938;SDS011;45801;51.810;19.444;2023-03-31T01:05:06;13.50;;;10.00;;
59938;SDS011;45801;51.810;19.444;2023-03-31T01:07:38;15.00;;;10.10;;
59938;SDS011;45801;51.810;19.444;2023-03-31T01:10:09;14.10;;;9.50;;
59938;SDS011;45801;51.810;19.444;2023-03-31T01:12:38;12.20;;;7.80;;
59938;SDS011;45801;51.810;19.444;2023-03-31T01:15:07;14.60;;;9.70;;
59938;SDS011;45801;51.810;19.444;2023-03-31T01:17:34;14.60;;;10.50;;
59938;SDS011;45801;51.810;19.444;2023-03-31T01:20:05;13.60;;;10.40;;
59938;SDS011;45801;51.810;19.444;2023-03-31T01:36:40;13.70;;;9.50;;
59938;SDS011;45801;51.810;19.444;2023-03-31T01:42:12;13.30;;;8.90;;
59938;SDS011;45801;51.810;19.444;2023-03-31T01:47:33;14.80;;;10.30;;
59938;SDS011;45801;51.810;19.444;2023-03-31T01:50:07;14.80;;;9.40;;
59938;SDS011;45801;51.810;19.444;2023-03-31T01:52:57;15.50;;;10.30;;
59938;SDS011;45801;51.810;19.444;2023-03-31T01:55:40;14.60;;;10.40;;
59938;SDS011;45801;51.810;19.444;2023-03-31T01:58:24;14.20;;;9.30;;
59938;SDS011;45801;51.810;19.444;2023-03-31T02:00:59;13.10;;;9.20;;
59938;SDS011;45801;51.810;19.444;2023-03-31T02:03:39;15.80;;;9.90;;
59938;SDS011;45801;51.810;19.444;2023-03-31T02:06:14;11.80;;;8.50;;
59938;SDS011;45801;51.810;19.444;2023-03-31T02:09:00;13.80;;;10.00;;
59938;SDS011;45801;51.810;19.444;2023-03-31T02:11:30;13.90;;;9.60;;
59938;SDS011;45801;51.810;19.444;2023-03-31T02:13:59;13.20;;;9.10;;
59938;SDS011;45801;51.810;19.444;2023-03-31T02:16:29;14.10;;;10.10;;
59938;SDS011;45801;51.810;19.444;2023-03-31T02:19:00;14.90;;;10.50;;
59938;SDS011;45801;51.810;19.444;2023-03-31T02:21:31;13.70;;;9.80;;
59938;SDS011;45801;51.810;19.444;2023-03-31T02:24:00;17.00;;;11.20;;
59938;SDS011;45801;51.810;19.444;2023-03-31T02:26:30;16.50;;;10.90;;
59938;SDS011;45801;51.810;19.444;2023-03-31T02:29:03;16.40;;;11.40;;
59938;SDS011;45801;51.810;19.444;2023-03-31T02:34:17;17.70;;;13.10;;
59938;SDS011;45801;51.810;19.444;2023-03-31T02:36:44;21.00;;;14.10;;
59938;SDS011;45801;51.810;19.444;2023-03-31T02:39:12;15.70;;;12.70;;
59938;SDS011;45801;51.810;19.444;2023-03-31T02:41:44;14.50;;;11.60;;
59938;SDS011;45801;51.810;19.444;2023-03-31T02:44:10;17.40;;;13.70;;
59938;SDS011;45801;51.810;19.444;2023-03-31T02:46:38;17.10;;;12.70;;
59938;SDS011;45801;51.810;19.444;2023-03-31T02:49:06;17.10;;;12.40;;
59938;SDS011;45801;51.810;19.444;2023-03-31T02:51:39;17.50;;;13.70;;
59938;SDS011;45801;51.810;19.444;2023-03-31T03:06:04;16.80;;;11.00;;
59938;SDS011;45801;51.810;19.444;2023-03-31T03:11:31;13.20;;;9.80;;
59938;SDS011;45801;51.810;19.444;2023-03-31T03:17:04;13.60;;;9.00;;
59938;SDS011;45801;51.810;19.444;2023-03-31T03:19:36;12.50;;;8.00;;
59938;SDS011;45801;51.810;19.444;2023-03-31T03:22:02;12.30;;;8.20;;
59938;SDS011;45801;51.810;19.444;2023-03-31T03:24:29;12.40;;;8.20;;
59938;SDS011;45801;51.810;19.444;2023-03-31T03:26:59;11.50;;;7.90;;
59938;SDS011;45801;51.810;19.444;2023-03-31T03:29:26;11.30;;;7.50;;
59938;SDS011;45801;51.810;19.444;2023-03-31T03:31:53;12.80;;;7.50;;
59938;SDS011;45801;51.810;19.444;2023-03-31T03:34:19;12.50;;;8.10;;
59938;SDS011;45801;51.810;19.444;2023-03-31T03:36:46;12.30;;;8.00;;
59938;SDS011;45801;51.810;19.444;2023-03-31T03:39:12;11.90;;;7.60;;
59938;SDS011;45801;51.810;19.444;2023-03-31T03:41:39;13.70;;;8.50;;
59938;SDS011;45801;51.810;19.444;2023-03-31T03:44:05;12.30;;;7.70;;
59938;SDS011;45801;51.810;19.444;2023-03-31T03:46:32;13.60;;;8.60;;
59938;SDS011;45801;51.810;19.444;2023-03-31T03:48:58;12.40;;;7.90;;
59938;SDS011;45801;51.810;19.444;2023-03-31T03:51:24;12.10;;;8.20;;
59938;SDS011;45801;51.810;19.444;2023-03-31T03:53:52;13.70;;;8.30;;
59938;SDS011;45801;51.810;19.444;2023-03-31T03:56:18;11.40;;;7.80;;
59938;SDS011;45801;51.810;19.444;2023-03-31T03:58:47;13.70;;;8.00;;
59938;SDS011;45801;51.810;19.444;2023-03-31T04:01:13;10.90;;;7.10;;
59938;SDS011;45801;51.810;19.444;2023-03-31T04:03:40;12.10;;;6.80;;
59938;SDS011;45801;51.810;19.444;2023-03-31T04:06:06;12.80;;;7.50;;
59938;SDS011;45801;51.810;19.444;2023-03-31T04:08:33;11.20;;;6.80;;
59938;SDS011;45801;51.810;19.444;2023-03-31T04:11:00;10.80;;;6.70;;
59938;SDS011;45801;51.810;19.444;2023-03-31T04:13:27;13.20;;;7.10;;
59938;SDS011;45801;51.810;19.444;2023-03-31T04:15:53;12.00;;;6.70;;
59938;SDS011;45801;51.810;19.444;2023-03-31T04:18:20;10.00;;;5.90;;
59938;SDS011;45801;51.810;19.444;2023-03-31T04:20:53;10.10;;;5.80;;
59938;SDS011;45801;51.810;19.444;2023-03-31T04:23:34;11.20;;;6.70;;
59938;SDS011;45801;51.810;19.444;2023-03-31T04:26:16;12.00;;;6.70;;
59938;SDS011;45801;51.810;19.444;2023-03-31T04:28:43;12.40;;;6.60;;
59938;SDS011;45801;51.810;19.444;2023-03-31T04:31:15;11.30;;;7.20;;
59938;SDS011;45801;51.810;19.444;2023-03-31T04:33:54;12.10;;;6.80;;
59938;SDS011;45801;51.810;19.444;2023-03-31T04:36:20;11.10;;;5.70;;
59938;SDS011;45801;51.810;19.444;2023-03-31T04:38:48;11.70;;;6.90;;
59938;SDS011;45801;51.810;19.444;2023-03-31T04:41:20;11.10;;;6.30;;
59938;SDS011;45801;51.810;19.444;2023-03-31T04:43:47;12.30;;;6.80;;
59938;SDS011;45801;51.810;19.444;2023-03-31T04:46:14;12.30;;;7.00;;
59938;SDS011;45801;51.810;19.444;2023-03-31T04:48:41;12.30;;;6.00;;
59938;SDS011;45801;51.810;19.444;2023-03-31T04:51:07;11.40;;;6.70;;
59938;SDS011;45801;51.810;19.444;2023-03-31T04:53:34;10.00;;;6.40;;
59938;SDS011;45801;51.810;19.444;2023-03-31T04:56:01;11.00;;;6.20;;
59938;SDS011;45801;51.810;19.444;2023-03-31T04:58:29;12.30;;;6.20;;
59938;SDS011;45801;51.810;19.444;2023-03-31T05:00:55;11.60;;;5.80;;
59938;SDS011;45801;51.810;19.444;2023-03-31T05:03:22;12.10;;;6.30;;
59938;SDS011;45801;51.810;19.444;2023-03-31T05:05:48;11.10;;;4.80;;
59938;SDS011;45801;51.810;19.444;2023-03-31T05:08:15;11.40;;;5.10;;
59938;SDS011;45801;51.810;19.444;2023-03-31T05:10:42;9.80;;;4.90;;
59938;SDS011;45801;51.810;19.444;2023-03-31T05:13:09;10.30;;;4.90;;
59938;SDS011;45801;51.810;19.444;2023-03-31T05:15:37;10.10;;;4.80;;
59938;SDS011;45801;51.810;19.444;2023-03-31T05:18:05;10.20;;;5.20;;
59938;SDS011;45801;51.810;19.444;2023-03-31T05:20:32;10.10;;;5.10;;
59938;SDS011;45801;51.810;19.444;2023-03-31T05:22:59;11.90;;;5.30;;
59938;SDS011;45801;51.810;19.444;2023-03-31T05:25:27;11.80;;;5.80;;
59938;SDS011;45801;51.810;19.444;2023-03-31T05:27:58;9.60;;;5.70;;
59938;SDS011;45801;51.810;19.444;2023-03-31T05:30:26;12.30;;;6.30;;
59938;SDS011;45801;51.810;19.444;2023-03-31T05:32:53;11.70;;;6.40;;
59938;SDS011;45801;51.810;19.444;2023-03-31T05:35:19;12.70;;;6.50;;
59938;SDS011;45801;51.810;19.444;2023-03-31T05:37:46;12.40;;;6.90;;
59938;SDS011;45801;51.810;19.444;2023-03-31T05:40:13;10.70;;;6.10;;
59938;SDS011;45801;51.810;19.444;2023-03-31T05:42:39;11.60;;;6.70;;
59938;SDS011;45801;51.810;19.444;2023-03-31T05:45:07;10.60;;;6.10;;
59938;SDS011;45801;51.810;19.444;2023-03-31T05:47:34;12.00;;;6.40;;
59938;SDS011;45801;51.810;19.444;2023-03-31T05:50:00;11.80;;;6.70;;
59938;SDS011;45801;51.810;19.444;2023-03-31T05:52:27;11.60;;;6.30;;
59938;SDS011;45801;51.810;19.444;2023-03-31T05:54:53;11.40;;;6.40;;
59938;SDS011;45801;51.810;19.444;2023-03-31T05:57:20;10.10;;;6.00;;
59938;SDS011;45801;51.810;19.444;2023-03-31T05:59:46;11.70;;;5.80;;
59938;SDS011;45801;51.810;19.444;2023-03-31T06:02:13;12.00;;;6.50;;
59938;SDS011;45801;51.810;19.444;2023-03-31T06:04:39;10.20;;;5.90;;
59938;SDS011;45801;51.810;19.444;2023-03-31T06:07:06;11.50;;;6.50;;
59938;SDS011;45801;51.810;19.444;2023-03-31T06:09:33;11.50;;;6.20;;
59938;SDS011;45801;51.810;19.444;2023-03-31T06:11:59;12.80;;;6.40;;
59938;SDS011;45801;51.810;19.444;2023-03-31T06:14:26;12.40;;;6.10;;
59938;SDS011;45801;51.810;19.444;2023-03-31T06:16:53;10.70;;;5.90;;
59938;SDS011;45801;51.810;19.444;2023-03-31T06:19:19;11.20;;;6.40;;
59938;SDS011;45801;51.810;19.444;2023-03-31T06:21:46;13.70;;;6.90;;
59938;SDS011;45801;51.810;19.444;2023-03-31T06:24:12;13.80;;;7.80;;
59938;SDS011;45801;51.810;19.444;2023-03-31T06:26:39;12.10;;;7.20;;
59938;SDS011;45801;51.810;19.444;2023-03-31T06:29:05;11.40;;;7.20;;
59938;SDS011;45801;51.810;19.444;2023-03-31T06:31:32;14.30;;;7.50;;
59938;SDS011;45801;51.810;19.444;2023-03-31T06:33:58;13.60;;;8.20;;
59938;SDS011;45801;51.810;19.444;2023-03-31T06:36:25;13.50;;;8.40;;
59938;SDS011;45801;51.810;19.444;2023-03-31T06:38:52;15.60;;;7.70;;
59938;SDS011;45801;51.810;19.444;2023-03-31T06:41:19;15.10;;;8.60;;
59938;SDS011;45801;51.810;19.444;2023-03-31T06:43:47;11.30;;;6.60;;
59938;SDS011;45801;51.810;19.444;2023-03-31T06:46:14;10.30;;;5.40;;
59938;SDS011;45801;51.810;19.444;2023-03-31T06:48:41;11.60;;;6.20;;
59938;SDS011;45801;51.810;19.444;2023-03-31T06:51:08;11.80;;;5.90;;
59938;SDS011;45801;51.810;19.444;2023-03-31T06:53:36;12.10;;;6.40;;
59938;SDS011;45801;51.810;19.444;2023-03-31T06:56:02;9.90;;;5.60;;
59938;SDS011;45801;51.810;19.444;2023-03-31T06:58:30;12.20;;;5.80;;
59938;SDS011;45801;51.810;19.444;2023-03-31T07:00:56;10.30;;;5.20;;
59938;SDS011;45801;51.810;19.444;2023-03-31T07:03:23;10.70;;;5.50;;
59938;SDS011;45801;51.810;19.444;2023-03-31T07:05:50;10.40;;;5.70;;
59938;SDS011;45801;51.810;19.444;2023-03-31T07:08:18;10.60;;;5.90;;
59938;SDS011;45801;51.810;19.444;2023-03-31T07:10:44;10.00;;;5.00;;
59938;SDS011;45801;51.810;19.444;2023-03-31T07:13:14;10.90;;;5.30;;
59938;SDS011;45801;51.810;19.444;2023-03-31T07:15:42;11.50;;;6.10;;
59938;SDS011;45801;51.810;19.444;2023-03-31T07:18:09;11.10;;;5.10;;
59938;SDS011;45801;51.810;19.444;2023-03-31T07:20:37;10.10;;;5.50;;
59938;SDS011;45801;51.810;19.444;2023-03-31T07:23:04;10.40;;;5.00;;
59938;SDS011;45801;51.810;19.444;2023-03-31T07:25:31;11.10;;;5.10;;
59938;SDS011;45801;51.810;19.444;2023-03-31T07:27:57;10.40;;;5.20;;
59938;SDS011;45801;51.810;19.444;2023-03-31T07:30:24;12.30;;;5.40;;
59938;SDS011;45801;51.810;19.444;2023-03-31T07:32:51;10.50;;;6.00;;
59938;SDS011;45801;51.810;19.444;2023-03-31T07:35:17;11.00;;;6.30;;
59938;SDS011;45801;51.810;19.444;2023-03-31T07:37:45;12.80;;;6.30;;
59938;SDS011;45801;51.810;19.444;2023-03-31T07:40:14;10.10;;;4.80;;
59938;SDS011;45801;51.810;19.444;2023-03-31T07:42:52;11.10;;;5.80;;
59938;SDS011;45801;51.810;19.444;2023-03-31T07:45:20;13.80;;;6.00;;
59938;SDS011;45801;51.810;19.444;2023-03-31T07:47:48;12.80;;;6.60;;
59938;SDS011;45801;51.810;19.444;2023-03-31T07:50:16;10.30;;;5.70;;
59938;SDS011;45801;51.810;19.444;2023-03-31T07:52:42;11.60;;;5.80;;
59938;SDS011;45801;51.810;19.444;2023-03-31T07:55:09;11.60;;;6.30;;
59938;SDS011;45801;51.810;19.444;2023-03-31T07:57:37;13.20;;;5.70;;
59938;SDS011;45801;51.810;19.444;2023-03-31T08:00:06;13.30;;;6.30;;
59938;SDS011;45801;51.810;19.444;2023-03-31T08:02:37;12.70;;;5.90;;
59938;SDS011;45801;51.810;19.444;2023-03-31T08:05:05;12.30;;;6.70;;
59938;SDS011;45801;51.810;19.444;2023-03-31T08:07:33;10.70;;;6.00;;
59938;SDS011;45801;51.810;19.444;2023-03-31T08:10:03;11.10;;;6.10;;
59938;SDS011;45801;51.810;19.444;2023-03-31T08:12:31;14.00;;;6.20;;
59938;SDS011;45801;51.810;19.444;2023-03-31T08:14:57;11.40;;;6.50;;
59938;SDS011;45801;51.810;19.444;2023-03-31T08:17:24;11.90;;;6.10;;
59938;SDS011;45801;51.810;19.444;2023-03-31T08:19:50;11.60;;;5.90;;
59938;SDS011;45801;51.810;19.444;2023-03-31T08:22:17;12.00;;;6.60;;
59938;SDS011;45801;51.810;19.444;2023-03-31T08:24:43;14.30;;;7.20;;
59938;SDS011;45801;51.810;19.444;2023-03-31T08:27:10;12.20;;;6.10;;
59938;SDS011;45801;51.810;19.444;2023-03-31T08:29:36;13.90;;;7.60;;
59938;SDS011;45801;51.810;19.444;2023-03-31T08:32:03;13.20;;;7.00;;
59938;SDS011;45801;51.810;19.444;2023-03-31T08:34:29;11.10;;;6.30;;
59938;SDS011;45801;51.810;19.444;2023-03-31T08:36:56;11.70;;;5.80;;
59938;SDS011;45801;51.810;19.444;2023-03-31T08:39:22;11.90;;;6.20;;
59938;SDS011;45801;51.810;19.444;2023-03-31T08:44:27;11.30;;;6.40;;
59938;SDS011;45801;51.810;19.444;2023-03-31T08:47:01;11.70;;;6.50;;
59938;SDS011;45801;51.810;19.444;2023-03-31T08:49:32;12.70;;;7.00;;
59938;SDS011;45801;51.810;19.444;2023-03-31T08:52:11;10.20;;;5.80;;
59938;SDS011;45801;51.810;19.444;2023-03-31T08:54:42;12.90;;;6.80;;
59938;SDS011;45801;51.810;19.444;2023-03-31T08:57:17;9.00;;;4.80;;
59938;SDS011;45801;51.810;19.444;2023-03-31T08:59:50;14.40;;;6.40;;
59938;SDS011;45801;51.810;19.444;2023-03-31T09:02:25;13.30;;;6.00;;
59938;SDS011;45801;51.810;19.444;2023-03-31T09:05:11;9.90;;;4.80;;
59938;SDS011;45801;51.810;19.444;2023-03-31T09:10:45;13.10;;;6.90;;
59938;SDS011;45801;51.810;19.444;2023-03-31T09:16:11;9.90;;;6.40;;
59938;SDS011;45801;51.810;19.444;2023-03-31T09:18:40;9.70;;;6.50;;
59938;SDS011;45801;51.810;19.444;2023-03-31T09:21:33;11.70;;;6.20;;
59938;SDS011;45801;51.810;19.444;2023-03-31T09:24:07;12.50;;;6.90;;
59938;SDS011;45801;51.810;19.444;2023-03-31T09:26:44;14.30;;;6.40;;
59938;SDS011;45801;51.810;19.444;2023-03-31T09:29:27;21.60;;;9.00;;
59938;SDS011;45801;51.810;19.444;2023-03-31T09:32:13;14.60;;;7.70;;
59938;SDS011;45801;51.810;19.444;2023-03-31T09:34:44;12.10;;;6.50;;
59938;SDS011;45801;51.810;19.444;2023-03-31T09:37:12;10.90;;;5.90;;
59938;SDS011;45801;51.810;19.444;2023-03-31T09:39:39;12.80;;;5.80;;
59938;SDS011;45801;51.810;19.444;2023-03-31T09:42:06;10.20;;;5.30;;
59938;SDS011;45801;51.810;19.444;2023-03-31T09:44:36;12.80;;;6.00;;
59938;SDS011;45801;51.810;19.444;2023-03-31T09:47:05;12.20;;;6.90;;
59938;SDS011;45801;51.810;19.444;2023-03-31T09:49:35;12.30;;;6.30;;
59938;SDS011;45801;51.810;19.444;2023-03-31T09:52:05;14.30;;;8.00;;
59938;SDS011;45801;51.810;19.444;2023-03-31T09:54:42;13.40;;;8.00;;
59938;SDS011;45801;51.810;19.444;2023-03-31T09:57:22;12.00;;;6.40;;
59938;SDS011;45801;51.810;19.444;2023-03-31T09:59:53;12.00;;;6.40;;
59938;SDS011;45801;51.810;19.444;2023-03-31T10:02:33;11.90;;;6.80;;
59938;SDS011;45801;51.810;19.444;2023-03-31T10:05:03;11.70;;;6.80;;
59938;SDS011;45801;51.810;19.444;2023-03-31T10:07:32;10.50;;;5.60;;
59938;SDS011;45801;51.810;19.444;2023-03-31T10:09:59;10.70;;;6.40;;
59938;SDS011;45801;51.810;19.444;2023-03-31T10:12:28;11.30;;;6.40;;
59938;SDS011;45801;51.810;19.444;2023-03-31T10:15:01;14.40;;;6.30;;
59938;SDS011;45801;51.810;19.444;2023-03-31T10:17:40;11.70;;;6.30;;
59938;SDS011;45801;51.810;19.444;2023-03-31T10:20:18;9.70;;;5.90;;
59938;SDS011;45801;51.810;19.444;2023-03-31T10:23:11;10.00;;;5.10;;
59938;SDS011;45801;51.810;19.444;2023-03-31T10:25:51;10.80;;;5.50;;
59938;SDS011;45801;51.810;19.444;2023-03-31T10:28:19;10.10;;;4.60;;
59938;SDS011;45801;51.810;19.444;2023-03-31T10:30:51;10.50;;;4.80;;
59938;SDS011;45801;51.810;19.444;2023-03-31T10:33:22;10.60;;;5.20;;
59938;SDS011;45801;51.810;19.444;2023-03-31T10:36:01;9.00;;;4.50;;
59938;SDS011;45801;51.810;19.444;2023-03-31T10:38:35;8.40;;;4.40;;
59938;SDS011;45801;51.810;19.444;2023-03-31T10:41:05;9.60;;;4.30;;
59938;SDS011;45801;51.810;19.444;2023-03-31T10:43:42;8.10;;;3.80;;
59938;SDS011;45801;51.810;19.444;2023-03-31T10:46:13;11.00;;;5.10;;
59938;SDS011;45801;51.810;19.444;2023-03-31T10:48:40;13.20;;;4.60;;
59938;SDS011;45801;51.810;19.444;2023-03-31T10:53:43;9.20;;;3.80;;
59938;SDS011;45801;51.810;19.444;2023-03-31T11:07:34;10.50;;;5.10;;
59938;SDS011;45801;51.810;19.444;2023-03-31T11:10:27;12.20;;;5.70;;
59938;SDS011;45801;51.810;19.444;2023-03-31T11:13:00;10.80;;;4.80;;
59938;SDS011;45801;51.810;19.444;2023-03-31T11:15:39;10.80;;;4.60;;
59938;SDS011;45801;51.810;19.444;2023-03-31T11:21:12;8.30;;;4.20;;
59938;SDS011;45801;51.810;19.444;2023-03-31T11:27:22;8.80;;;3.80;;
59938;SDS011;45801;51.810;19.444;2023-03-31T11:29:32;7.30;;;3.30;;
59938;SDS011;45801;51.810;19.444;2023-03-31T11:34:56;10.00;;;3.90;;
59938;SDS011;45801;51.810;19.444;2023-03-31T11:37:38;11.20;;;4.00;;
59938;SDS011;45801;51.810;19.444;2023-03-31T11:45:34;10.90;;;3.60;;
59938;SDS011;45801;51.810;19.444;2023-03-31T11:48:21;7.20;;;3.50;;
59938;SDS011;45801;51.810;19.444;2023-03-31T11:50:57;7.90;;;2.70;;
59938;SDS011;45801;51.810;19.444;2023-03-31T11:53:29;8.60;;;3.10;;
59938;SDS011;45801;51.810;19.444;2023-03-31T11:55:58;8.50;;;3.20;;
59938;SDS011;45801;51.810;19.444;2023-03-31T11:58:37;10.10;;;3.70;;
59938;SDS011;45801;51.810;19.444;2023-03-31T12:04:04;8.40;;;3.40;;
59938;SDS011;45801;51.810;19.444;2023-03-31T12:06:39;7.80;;;3.10;;
59938;SDS011;45801;51.810;19.444;2023-03-31T12:09:27;7.40;;;3.20;;
59938;SDS011;45801;51.810;19.444;2023-03-31T12:12:04;7.20;;;3.00;;
59938;SDS011;45801;51.810;19.444;2023-03-31T12:14:39;10.20;;;3.50;;
59938;SDS011;45801;51.810;19.444;2023-03-31T12:17:13;7.90;;;2.90;;
59938;SDS011;45801;51.810;19.444;2023-03-31T12:22:21;8.80;;;3.40;;
59938;SDS011;45801;51.810;19.444;2023-03-31T12:24:50;7.90;;;3.00;;
59938;SDS011;45801;51.810;19.444;2023-03-31T12:27:37;7.20;;;2.70;;
59938;SDS011;45801;51.810;19.444;2023-03-31T12:32:33;10.00;;;2.70;;
59938;SDS011;45801;51.810;19.444;2023-03-31T12:35:06;6.60;;;2.60;;
59938;SDS011;45801;51.810;19.444;2023-03-31T12:37:46;7.80;;;2.40;;
59938;SDS011;45801;51.810;19.444;2023-03-31T12:43:06;8.90;;;3.00;;
59938;SDS011;45801;51.810;19.444;2023-03-31T12:45:46;9.00;;;3.30;;
59938;SDS011;45801;51.810;19.444;2023-03-31T12:49:09;8.80;;;3.60;;
59938;SDS011;45801;51.810;19.444;2023-03-31T12:54:21;8.00;;;3.30;;
59938;SDS011;45801;51.810;19.444;2023-03-31T13:04:33;8.50;;;4.00;;
59938;SDS011;45801;51.810;19.444;2023-03-31T13:06:59;8.20;;;4.00;;
59938;SDS011;45801;51.810;19.444;2023-03-31T13:12:05;10.90;;;4.40;;
59938;SDS011;45801;51.810;19.444;2023-03-31T13:14:36;11.00;;;4.40;;
59938;SDS011;45801;51.810;19.444;2023-03-31T13:17:12;10.20;;;4.60;;
59938;SDS011;45801;51.810;19.444;2023-03-31T13:19:47;11.70;;;4.00;;
59938;SDS011;45801;51.810;19.444;2023-03-31T13:22:28;9.70;;;4.00;;
59938;SDS011;45801;51.810;19.444;2023-03-31T13:25:57;10.80;;;4.10;;
59938;SDS011;45801;51.810;19.444;2023-03-31T13:27:58;7.50;;;3.20;;
59938;SDS011;45801;51.810;19.444;2023-03-31T13:33:02;6.90;;;2.50;;
59938;SDS011;45801;51.810;19.444;2023-03-31T13:35:36;7.50;;;2.50;;
59938;SDS011;45801;51.810;19.444;2023-03-31T13:38:08;8.90;;;2.90;;
59938;SDS011;45801;51.810;19.444;2023-03-31T13:56:51;7.80;;;2.50;;
59938;SDS011;45801;51.810;19.444;2023-03-31T14:03:05;4.30;;;1.60;;
59938;SDS011;45801;51.810;19.444;2023-03-31T14:05:39;5.30;;;1.90;;
59938;SDS011;45801;51.810;19.444;2023-03-31T14:08:18;6.30;;;1.80;;
59938;SDS011;45801;51.810;19.444;2023-03-31T14:11:16;5.80;;;2.50;;
59938;SDS011;45801;51.810;19.444;2023-03-31T14:16:28;5.90;;;2.00;;
59938;SDS011;45801;51.810;19.444;2023-03-31T14:24:40;4.50;;;1.90;;
59938;SDS011;45801;51.810;19.444;2023-03-31T14:33:03;5.90;;;2.80;;
59938;SDS011;45801;51.810;19.444;2023-03-31T14:35:27;7.20;;;2.60;;
59938;SDS011;45801;51.810;19.444;2023-03-31T14:38:09;7.50;;;2.60;;
59938;SDS011;45801;51.810;19.444;2023-03-31T14:40:46;6.00;;;1.90;;
59938;SDS011;45801;51.810;19.444;2023-03-31T14:43:19;8.60;;;2.40;;
59938;SDS011;45801;51.810;19.444;2023-03-31T14:45:57;7.60;;;2.40;;
59938;SDS011;45801;51.810;19.444;2023-03-31T14:48:25;5.40;;;1.70;;
59938;SDS011;45801;51.810;19.444;2023-03-31T14:50:55;4.80;;;1.70;;
59938;SDS011;45801;51.810;19.444;2023-03-31T14:53:24;6.40;;;2.40;;
59938;SDS011;45801;51.810;19.444;2023-03-31T14:55:54;6.30;;;2.20;;
59938;SDS011;45801;51.810;19.444;2023-03-31T14:58:33;8.70;;;1.90;;
59938;SDS011;45801;51.810;19.444;2023-03-31T15:01:03;5.00;;;1.90;;
59938;SDS011;45801;51.810;19.444;2023-03-31T15:03:32;4.10;;;2.00;;
59938;SDS011;45801;51.810;19.444;2023-03-31T15:06:02;5.60;;;2.10;;
59938;SDS011;45801;51.810;19.444;2023-03-31T15:08:30;5.50;;;2.00;;
59938;SDS011;45801;51.810;19.444;2023-03-31T15:10:58;8.40;;;2.40;;
59938;SDS011;45801;51.810;19.444;2023-03-31T15:13:35;7.30;;;2.70;;
59938;SDS011;45801;51.810;19.444;2023-03-31T15:18:52;6.20;;;2.50;;
59938;SDS011;45801;51.810;19.444;2023-03-31T15:21:20;7.70;;;3.20;;
59938;SDS011;45801;51.810;19.444;2023-03-31T15:23:52;8.70;;;3.40;;
59938;SDS011;45801;51.810;19.444;2023-03-31T15:26:23;6.30;;;2.90;;
59938;SDS011;45801;51.810;19.444;2023-03-31T15:29:32;8.30;;;3.20;;
59938;SDS011;45801;51.810;19.444;2023-03-31T15:31:57;8.10;;;3.40;;
59938;SDS011;45801;51.810;19.444;2023-03-31T15:34:25;7.20;;;2.80;;
59938;SDS011;45801;51.810;19.444;2023-03-31T15:36:55;8.40;;;3.00;;
59938;SDS011;45801;51.810;19.444;2023-03-31T15:39:23;7.20;;;2.50;;
59938;SDS011;45801;51.810;19.444;2023-03-31T15:41:51;13.90;;;6.10;;
59938;SDS011;45801;51.810;19.444;2023-03-31T15:47:00;11.10;;;3.70;;
59938;SDS011;45801;51.810;19.444;2023-03-31T15:52:01;10.30;;;3.30;;
59938;SDS011;45801;51.810;19.444;2023-03-31T15:54:30;8.30;;;3.20;;
59938;SDS011;45801;51.810;19.444;2023-03-31T15:57:00;7.30;;;3.20;;
59938;SDS011;45801;51.810;19.444;2023-03-31T15:59:29;7.20;;;3.50;;
59938;SDS011;45801;51.810;19.444;2023-03-31T16:01:57;9.40;;;3.30;;
59938;SDS011;45801;51.810;19.444;2023-03-31T16:04:32;9.00;;;3.80;;
59938;SDS011;45801;51.810;19.444;2023-03-31T16:07:02;9.80;;;3.60;;
59938;SDS011;45801;51.810;19.444;2023-03-31T16:12:50;8.90;;;3.60;;
59938;SDS011;45801;51.810;19.444;2023-03-31T16:15:20;8.80;;;3.30;;
59938;SDS011;45801;51.810;19.444;2023-03-31T16:17:55;9.90;;;3.50;;
59938;SDS011;45801;51.810;19.444;2023-03-31T16:20:28;10.10;;;3.80;;
59938;SDS011;45801;51.810;19.444;2023-03-31T16:23:10;10.00;;;3.70;;
59938;SDS011;45801;51.810;19.444;2023-03-31T16:25:41;7.50;;;3.20;;
59938;SDS011;45801;51.810;19.444;2023-03-31T16:28:11;7.50;;;3.30;;
59938;SDS011;45801;51.810;19.444;2023-03-31T16:33:09;9.90;;;3.40;;
59938;SDS011;45801;51.810;19.444;2023-03-31T16:35:41;8.20;;;3.40;;
59938;SDS011;45801;51.810;19.444;2023-03-31T16:38:10;8.80;;;3.90;;
59938;SDS011;45801;51.810;19.444;2023-03-31T16:40:42;9.50;;;3.60;;
59938;SDS011;45801;51.810;19.444;2023-03-31T16:45:39;9.80;;;4.90;;
59938;SDS011;45801;51.810;19.444;2023-03-31T16:48:10;12.20;;;4.70;;
59938;SDS011;45801;51.810;19.444;2023-03-31T16:50:37;11.40;;;4.80;;
59938;SDS011;45801;51.810;19.444;2023-03-31T16:53:03;12.40;;;6.40;;
59938;SDS011;45801;51.810;19.444;2023-03-31T16:55:30;10.40;;;5.00;;
59938;SDS011;45801;51.810;19.444;2023-03-31T16:57:57;12.70;;;5.20;;
59938;SDS011;45801;51.810;19.444;2023-03-31T17:00:29;11.40;;;5.90;;
59938;SDS011;45801;51.810;19.444;2023-03-31T17:02:57;11.00;;;5.60;;
59938;SDS011;45801;51.810;19.444;2023-03-31T17:05:25;13.90;;;5.70;;
59938;SDS011;45801;51.810;19.444;2023-03-31T17:07:52;10.30;;;4.80;;
59938;SDS011;45801;51.810;19.444;2023-03-31T17:10:19;10.60;;;5.40;;
59938;SDS011;45801;51.810;19.444;2023-03-31T17:12:46;11.00;;;4.70;;
59938;SDS011;45801;51.810;19.444;2023-03-31T17:15:13;9.90;;;4.20;;
59938;SDS011;45801;51.810;19.444;2023-03-31T17:17:39;10.00;;;4.10;;
59938;SDS011;45801;51.810;19.444;2023-03-31T17:20:06;10.40;;;4.10;;
59938;SDS011;45801;51.810;19.444;2023-03-31T17:22:35;7.60;;;3.00;;